Time;durP1;ratioP1;P1;durP2;ratioP2;P2;SDS_P1;SDS_P2;PMS_P1;PMS_P2;Temp;Humidity;BMP_temperature;BMP_pressure;BME280_temperature;BME280_humidity;BME280_pressure;Samples;Min_cycle;Max_cycle;Signal;HPM_P1;HPM_P2
2022/04/22 00:00:18;;;;;;;;;5.25;5.25;;;;;16.41;41.95;100232.53;2415519;28;45154;-96
2022/04/22 00:01:55;;;;;;;;;5.00;5.00;;;;;16.42;41.93;100232.41;2420796;28;45663;-94
2022/04/22 00:04:27;;;;;;;;;8.75;6.50;;;;;16.35;42.22;100228.47;2859327;23;46109;-93
2022/04/22 00:05:38;;;;;;;;;6.00;6.00;;;;;16.31;42.16;100219.88;2416474;28;45285;-96
2022/04/22 00:06:48;;;;;;;;;2.50;2.50;;;;;16.34;42.07;100232.06;2382972;28;47074;-94
2022/04/22 00:07:59;;;;;;;;;8.50;5.00;;;;;16.30;42.75;100225.25;2375374;28;45351;-95
2022/04/22 00:09:09;;;;;;;;;6.75;6.00;;;;;16.31;42.79;100232.28;2387468;28;47108;-94
2022/04/22 00:10:20;;;;;;;;;8.50;6.25;;;;;16.33;42.83;100226.84;2396620;28;45259;-94
2022/04/22 00:11:30;;;;;;;;;9.00;6.00;;;;;16.31;43.44;100225.16;2393331;28;45317;-92
2022/04/22 00:12:40;;;;;;;;;4.00;4.00;;;;;16.30;42.82;100225.25;2393708;28;45371;-94
2022/04/22 00:13:52;;;;;;;;;3.00;3.00;;;;;16.30;42.74;100230.56;2385466;28;48138;-93
2022/04/22 00:15:03;;;;;;;;;6.00;4.75;;;;;16.29;42.87;100228.88;2386108;28;45369;-93
2022/04/22 00:16:13;;;;;;;;;7.00;5.00;;;;;16.26;42.45;100221.97;2384436;28;47319;-93
2022/04/22 00:17:23;;;;;;;;;6.00;6.00;;;;;16.26;43.34;100234.38;2386079;28;45461;-86
2022/04/22 00:18:34;;;;;;;;;6.00;6.00;;;;;16.26;43.17;100226.41;2396199;28;45355;-86
2022/04/22 00:19:44;;;;;;;;;6.50;5.75;;;;;16.24;43.13;100220.38;2403590;28;45199;-87
2022/04/22 00:20:55;;;;;;;;;7.50;7.50;;;;;16.23;43.48;100221.31;2403272;28;46455;-86
2022/04/22 00:22:05;;;;;;;;;5.00;4.00;;;;;16.23;43.87;100223.97;2403510;28;45170;-87
2022/04/22 00:23:15;;;;;;;;;4.50;4.50;;;;;16.23;44.13;100224.81;2402262;28;45597;-86
2022/04/22 00:24:26;;;;;;;;;8.50;7.00;;;;;16.22;43.68;100222.28;2394010;28;45212;-86
2022/04/22 00:25:36;;;;;;;;;7.00;7.00;;;;;16.17;43.09;100212.78;2402023;28;46159;-86
2022/04/22 00:26:46;;;;;;;;;6.50;6.00;;;;;16.18;43.07;100222.47;2409741;28;44787;-86
2022/04/22 00:27:57;;;;;;;;;6.75;6.75;;;;;16.16;43.28;100219.06;2408310;28;45469;-86
2022/04/22 00:29:07;;;;;;;;;6.75;4.75;;;;;16.14;43.75;100210.38;2403506;28;44821;-86
2022/04/22 00:30:17;;;;;;;;;8.25;6.00;;;;;16.14;43.67;100215.66;2397544;28;46379;-86
2022/04/22 00:31:28;;;;;;;;;6.25;5.00;;;;;16.12;43.86;100217.56;2395371;28;45148;-87
2022/04/22 00:32:39;;;;;;;;;8.00;6.75;;;;;16.12;43.90;100214.06;2392907;28;46950;-86
2022/04/22 00:33:50;;;;;;;;;6.00;5.25;;;;;16.10;43.62;100215.97;2396152;28;45267;-86
2022/04/22 00:35:02;;;;;;;;;5.75;5.25;;;;;16.07;44.11;100211.72;2393072;28;46981;-85
2022/04/22 00:36:13;;;;;;;;;5.75;3.00;;;;;16.08;44.12;100216.06;2405830;28;45238;-86
2022/04/22 00:37:23;;;;;;;;;8.75;6.00;;;;;16.05;43.88;100216.28;2391897;28;47251;-86
2022/04/22 00:38:34;;;;;;;;;8.75;7.00;;;;;16.04;43.72;100214.53;2402830;28;45259;-86
2022/04/22 00:39:44;;;;;;;;;9.25;6.00;;;;;16.03;43.50;100210.16;2393166;28;48010;-86
2022/04/22 00:40:55;;;;;;;;;7.25;6.00;;;;;16.01;44.11;100202.31;2395778;28;45202;-86
2022/04/22 00:42:10;;;;;;;;;5.00;5.00;;;;;16.01;44.54;100204.97;2393000;28;47157;-86
2022/04/22 00:43:23;;;;;;;;;8.75;8.75;;;;;15.98;43.60;100205.16;2394250;28;45283;-83
2022/04/22 00:44:34;;;;;;;;;6.75;6.00;;;;;15.96;43.78;100215.88;2392420;28;48355;-89
2022/04/22 00:45:45;;;;;;;;;6.50;5.25;;;;;15.96;43.31;100215.03;2387429;28;44732;-90
2022/04/22 00:46:56;;;;;;;;;6.00;6.00;;;;;15.95;43.51;100210.69;2388821;28;47219;-85
2022/04/22 00:48:06;;;;;;;;;6.00;6.00;;;;;15.91;43.56;100210.03;2395993;28;45275;-90
2022/04/22 00:49:16;;;;;;;;;7.75;7.25;;;;;15.89;43.66;100211.06;2393692;28;48231;-91
2022/04/22 00:50:27;;;;;;;;;5.75;5.75;;;;;15.89;43.92;100208.41;2387961;28;45291;-89
2022/04/22 00:51:38;;;;;;;;;5.75;5.75;;;;;15.90;43.42;100212.78;2386124;28;46991;-90
2022/04/22 00:52:48;;;;;;;;;6.00;6.00;;;;;15.88;44.25;100210.22;2397221;28;45214;-89
2022/04/22 00:54:02;;;;;;;;;5.50;4.50;;;;;15.89;44.24;100214.56;2407380;28;45904;-87
2022/04/22 00:55:13;;;;;;;;;6.00;6.00;;;;;15.87;43.74;100213.81;2403354;28;45428;-87
2022/04/22 00:56:23;;;;;;;;;8.50;6.00;;;;;15.88;44.07;100209.38;2403070;28;45463;-87
2022/04/22 00:57:34;;;;;;;;;8.50;7.00;;;;;15.85;43.81;100210.44;2403402;28;44726;-87
2022/04/22 00:58:47;;;;;;;;;8.75;7.00;;;;;15.87;44.16;100213.81;2392739;28;47268;-87
2022/04/22 00:59:58;;;;;;;;;6.25;5.25;;;;;15.84;44.13;100208.72;2396270;28;45255;-87
2022/04/22 01:01:09;;;;;;;;;6.50;6.50;;;;;15.85;44.72;100205.13;2401929;28;46749;-87
2022/04/22 01:02:19;;;;;;;;;5.75;5.50;;;;;15.83;44.36;100201.69;2412029;28;44774;-87
2022/04/22 01:03:29;;;;;;;;;7.00;7.00;;;;;15.83;44.19;100201.69;2409077;28;46245;-87
2022/04/22 01:10:57;;;;;;;;;5.75;5.75;;;;;15.72;44.76;100195.31;2369271;28;45299;-87
2022/04/22 01:12:09;;;;;;;;;6.00;6.00;;;;;15.73;44.34;100196.13;2364397;29;47599;-90
2022/04/22 01:13:20;;;;;;;;;6.00;5.00;;;;;15.71;44.81;100196.25;2373669;28;45288;-88
2022/04/22 01:14:31;;;;;;;;;5.00;5.00;;;;;15.70;44.88;100197.22;2405239;28;45452;-88
2022/04/22 01:15:41;;;;;;;;;8.00;6.00;;;;;15.69;44.98;100195.50;2396071;28;45384;-88
2022/04/22 01:16:51;;;;;;;;;6.25;6.00;;;;;15.68;44.93;100201.72;2388008;28;46912;-87
2022/04/22 01:18:03;;;;;;;;;6.25;6.00;;;;;15.67;45.13;100192.09;2386136;28;45328;-86
2022/04/22 01:19:14;;;;;;;;;8.00;7.00;;;;;15.65;45.01;100191.34;2395128;28;45826;-87
2022/04/22 01:20:24;;;;;;;;;8.75;6.75;;;;;15.64;45.19;100192.28;2394907;28;45346;-87
2022/04/22 01:21:34;;;;;;;;;8.00;6.00;;;;;15.62;45.21;100192.41;2397662;28;46187;-87
2022/04/22 01:22:45;;;;;;;;;8.25;6.50;;;;;15.60;45.03;100190.78;2401523;28;45230;-86
2022/04/22 01:23:55;;;;;;;;;6.25;6.25;;;;;15.59;45.47;100197.03;2398215;28;45469;-83
2022/04/22 01:25:06;;;;;;;;;6.50;6.00;;;;;15.56;45.58;100191.91;2402917;28;45463;-82
2022/04/22 01:26:16;;;;;;;;;7.50;5.75;;;;;15.54;45.60;100192.00;2391993;28;48230;-82
2022/04/22 01:27:29;;;;;;;;;5.25;5.25;;;;;15.50;45.80;100191.38;2386047;28;45224;-82
2022/04/22 01:28:39;;;;;;;;;5.50;5.50;;;;;15.49;45.69;100189.66;2395807;28;45698;-83
2022/04/22 01:29:50;;;;;;;;;6.00;6.00;;;;;15.47;45.75;100191.56;2402951;28;44624;-83
2022/04/22 01:31:00;;;;;;;;;5.25;5.25;;;;;15.46;45.77;100187.19;2402238;28;46138;-82
2022/04/22 01:32:10;;;;;;;;;8.25;6.00;;;;;15.44;45.96;100191.75;2398084;28;44718;-82
2022/04/22 01:33:21;;;;;;;;;5.25;4.75;;;;;15.41;46.15;100186.63;2395602;28;45455;-84
2022/04/22 01:34:33;;;;;;;;;5.50;5.50;;;;;15.38;46.18;100187.66;2403000;28;45558;-84
2022/04/22 01:35:44;;;;;;;;;7.25;7.00;;;;;15.36;45.88;100183.44;2406340;28;45464;-84
2022/04/22 01:36:54;;;;;;;;;6.75;6.00;;;;;15.34;46.18;100185.31;2410611;28;45297;-84
2022/04/22 01:38:05;;;;;;;;;6.00;5.25;;;;;15.32;46.03;100174.81;2390330;28;46470;-84
2022/04/22 01:39:15;;;;;;;;;8.75;8.75;;;;;15.30;46.13;100179.38;2395301;28;45246;-91
2022/04/22 01:40:26;;;;;;;;;7.50;7.25;;;;;15.27;46.10;100177.75;2393106;28;48117;-93
2022/04/22 01:41:36;;;;;;;;;7.75;6.75;;;;;15.27;46.43;100168.97;2395702;28;45202;-91
2022/04/22 01:42:47;;;;;;;;;9.25;8.00;;;;;15.26;46.69;100172.56;2392661;28;46299;-92
2022/04/22 01:43:57;;;;;;;;;8.00;7.00;;;;;15.24;46.39;100177.09;2396181;28;46064;-91
2022/04/22 01:45:09;;;;;;;;;7.50;6.00;;;;;15.22;46.41;100176.34;2402797;28;45427;-94
2022/04/22 01:46:19;;;;;;;;;6.50;6.50;;;;;15.18;46.58;100168.59;2392753;28;44787;-89
2022/04/22 01:47:30;;;;;;;;;9.50;5.75;;;;;15.18;46.46;100175.69;2377972;28;47231;-90
2022/04/22 01:48:40;;;;;;;;;6.50;6.50;;;;;15.13;46.93;100170.69;2380876;28;44782;-90
2022/04/22 01:49:50;;;;;;;;;5.25;5.25;;;;;15.12;46.96;100171.63;2395084;28;45328;-90
2022/04/22 01:51:01;;;;;;;;;8.25;8.25;;;;;15.10;47.00;100173.50;2403151;28;45202;-92
2022/04/22 01:52:12;;;;;;;;;6.25;6.25;;;;;15.06;47.10;100166.72;2391088;28;45257;-92
2022/04/22 01:53:23;;;;;;;;;10.25;7.50;;;;;15.05;47.21;100172.94;2391852;28;44699;-94
2022/04/22 01:54:33;;;;;;;;;7.25;7.25;;;;;15.05;47.32;100175.59;2400607;28;46184;-94
2022/04/22 01:55:43;;;;;;;;;5.75;5.75;;;;;14.98;47.11;100167.19;2400510;28;45420;-89
2022/04/22 01:56:54;;;;;;;;;6.50;6.00;;;;;15.00;47.07;100172.38;2395304;28;46285;-85
2022/04/22 01:58:04;;;;;;;;;6.50;5.75;;;;;14.95;46.88;100164.72;2392363;28;45189;-85
2022/04/22 01:59:15;;;;;;;;;9.00;6.00;;;;;14.94;47.31;100165.63;2391819;28;46527;-86
2022/04/22 02:00:25;;;;;;;;;6.50;6.50;;;;;14.94;47.00;100173.56;2400340;28;45159;-85
2022/04/22 02:01:36;;;;;;;;;8.75;7.50;;;;;14.90;47.73;100161.50;2402370;28;46056;-86
2022/04/22 02:02:46;;;;;;;;;8.50;8.50;;;;;14.90;47.33;100161.50;2396030;28;45302;-86
2022/04/22 02:03:57;;;;;;;;;6.00;6.00;;;;;14.83;47.37;100161.84;2395473;28;45202;-85
2022/04/22 02:05:07;;;;;;;;;8.25;8.00;;;;;14.85;47.56;100162.63;2392452;28;44613;-86
2022/04/22 02:06:18;;;;;;;;;7.50;7.25;;;;;14.82;47.43;100162.78;2385829;28;47060;-86
2022/04/22 02:07:28;;;;;;;;;8.25;6.50;;;;;14.81;47.37;100162.88;2395125;28;45238;-85
2022/04/22 02:08:38;;;;;;;;;7.75;7.25;;;;;14.78;47.70;100157.75;2402729;28;45322;-85
2022/04/22 02:09:49;;;;;;;;;7.25;6.00;;;;;14.78;47.62;100158.63;2400837;28;44754;-84
2022/04/22 02:10:59;;;;;;;;;7.25;7.25;;;;;14.73;47.91;100155.41;2386260;28;47148;-85
2022/04/22 02:12:10;;;;;;;;;8.00;7.75;;;;;14.70;47.77;100156.44;2395325;28;45410;-85
2022/04/22 02:13:21;;;;;;;;;8.25;7.50;;;;;14.70;47.85;100160.88;2402466;28;46310;-85
2022/04/22 02:14:31;;;;;;;;;7.50;7.25;;;;;14.69;47.61;100160.00;2398041;28;45326;-85
2022/04/22 02:15:41;;;;;;;;;9.50;8.50;;;;;14.66;47.87;100162.84;2398598;28;46128;-85
2022/04/22 02:16:53;;;;;;;;;10.25;8.00;;;;;14.66;47.92;100165.50;2401830;28;45544;-85
2022/04/22 02:18:03;;;;;;;;;9.75;8.25;;;;;14.64;47.97;100159.47;2392532;28;48117;-85
2022/04/22 02:19:14;;;;;;;;;10.25;7.25;;;;;14.61;47.60;100157.84;2392564;28;44774;-85
2022/04/22 02:20:25;;;;;;;;;7.75;7.75;;;;;14.60;48.01;100156.13;2384567;28;47845;-85
2022/04/22 02:21:35;;;;;;;;;8.50;8.00;;;;;14.60;48.00;100166.72;2393329;28;44609;-85
2022/04/22 02:22:45;;;;;;;;;9.50;7.50;;;;;14.58;48.03;100159.81;2393245;28;45263;-85
2022/04/22 02:23:56;;;;;;;;;6.75;5.00;;;;;14.56;48.05;100151.97;2401225;28;46511;-85
2022/04/22 02:25:08;;;;;;;;;6.25;6.00;;;;;14.58;47.53;100165.94;2402537;28;46233;-85
2022/04/22 02:26:18;;;;;;;;;9.50;8.00;;;;;14.56;47.85;100167.84;2389974;28;45401;-90
2022/04/22 02:28:59;;;;;;;;;6.50;6.50;;;;;14.54;48.05;100156.50;2378032;28;45466;-79
2022/04/22 02:30:11;;;;;;;;;8.75;6.00;;;;;14.55;47.53;100157.34;2395134;28;46451;-85
2022/04/22 02:31:21;;;;;;;;;11.50;9.00;;;;;14.53;47.80;100154.78;2393387;28;45429;-86
2022/04/22 02:32:32;;;;;;;;;8.00;7.25;;;;;14.53;48.12;100154.78;2400225;28;46321;-85
2022/04/22 02:33:42;;;;;;;;;9.50;8.00;;;;;14.54;48.14;100156.50;2402683;28;45299;-84
2022/04/22 02:34:53;;;;;;;;;7.50;6.50;;;;;14.52;47.73;100146.00;2402578;28;45518;-85
2022/04/22 02:36:06;;;;;;;;;9.00;9.00;;;;;14.53;47.37;100141.56;2401235;28;44683;-85
2022/04/22 02:37:16;;;;;;;;;11.00;8.00;;;;;14.51;47.49;100148.75;2394501;28;47634;-85
2022/04/22 02:38:28;;;;;;;;;8.25;7.75;;;;;14.51;47.84;100148.75;2395010;28;45275;-84
2022/04/22 02:39:38;;;;;;;;;10.00;8.25;;;;;14.51;48.07;100146.09;2402570;28;46418;-83
2022/04/22 02:45:28;;;;;;;;;7.00;7.00;;;;;14.50;47.54;100141.75;2402261;28;45851;-83
2022/04/22 02:46:39;;;;;;;;;10.25;8.00;;;;;14.50;47.23;100139.09;2402650;28;45255;-83
2022/04/22 02:47:49;;;;;;;;;6.00;6.00;;;;;14.50;47.47;100149.69;2401818;28;45452;-83
2022/04/22 02:49:00;;;;;;;;;10.25;9.00;;;;;14.52;47.34;100145.16;2400949;28;46623;-83
2022/04/22 02:50:10;;;;;;;;;9.00;8.25;;;;;14.51;47.03;100141.66;2397778;28;45441;-83
2022/04/22 02:51:20;;;;;;;;;6.00;6.00;;;;;14.51;46.95;100139.03;2395226;28;45301;-83
2022/04/22 02:52:31;;;;;;;;;9.00;8.00;;;;;14.52;46.72;100137.22;2403761;28;45444;-85
2022/04/22 02:53:41;;;;;;;;;9.75;8.50;;;;;14.52;47.17;100137.22;2406289;28;45273;-85
2022/04/22 02:54:51;;;;;;;;;10.75;9.75;;;;;14.53;47.14;100136.28;2404775;28;45567;-85
2022/04/22 02:56:04;;;;;;;;;11.75;8.50;;;;;14.52;47.45;100132.78;2397135;28;45542;-85
2022/04/22 02:57:16;;;;;;;;;12.75;10.50;;;;;14.56;47.15;100138.75;2391491;28;46804;-85
2022/04/22 02:58:26;;;;;;;;;8.75;8.75;;;;;14.56;46.85;100137.91;2403991;28;45225;-84
2022/04/22 02:59:39;;;;;;;;;11.25;8.50;;;;;14.55;46.88;100142.31;2403842;28;45270;-85
2022/04/22 03:00:50;;;;;;;;;10.00;8.25;;;;;14.58;46.96;100147.44;2403360;28;45266;-84
2022/04/22 03:02:01;;;;;;;;;9.00;8.25;;;;;14.59;46.86;100146.47;2403904;28;46414;-85
2022/04/22 03:03:11;;;;;;;;;9.00;8.25;;;;;14.60;47.07;100145.56;2404592;28;45265;-92
2022/04/22 03:04:22;;;;;;;;;11.75;10.25;;;;;14.58;46.91;100136.88;2391746;28;47915;-90
2022/04/22 03:05:34;;;;;;;;;12.50;10.00;;;;;14.59;47.06;100141.19;2399193;28;45436;-91
2022/04/22 03:06:44;;;;;;;;;8.25;8.25;;;;;14.58;46.98;100131.56;2390811;28;46837;-91
2022/04/22 03:07:55;;;;;;;;;11.00;8.75;;;;;14.59;47.00;100132.44;2390716;28;45293;-91
2022/04/22 03:09:05;;;;;;;;;10.25;8.25;;;;;14.59;47.13;100130.63;2403565;28;48039;-91
2022/04/22 03:10:17;;;;;;;;;10.25;10.25;;;;;14.62;46.95;100130.44;2413151;28;45254;-93
2022/04/22 03:11:28;;;;;;;;;7.50;7.50;;;;;14.60;46.96;100134.97;2398370;28;47149;-92
2022/04/22 03:12:39;;;;;;;;;10.25;9.00;;;;;14.62;46.94;100137.50;2399252;28;45209;-94
2022/04/22 03:13:51;;;;;;;;;10.25;9.75;;;;;14.62;46.91;100138.38;2401136;28;48226;-93
2022/04/22 03:15:03;;;;;;;;;9.50;9.00;;;;;14.63;46.72;100136.59;2387307;28;45210;-94
2022/04/22 03:16:14;;;;;;;;;9.00;5.75;;;;;14.61;46.91;100134.03;2396580;28;48143;-91
2022/04/22 03:17:24;;;;;;;;;9.50;9.50;;;;;14.63;47.28;100140.09;2394155;28;45297;-93
2022/04/22 03:18:35;;;;;;;;;7.75;7.75;;;;;14.60;46.90;100134.97;2387098;28;48055;-93
2022/04/22 03:19:45;;;;;;;;;9.75;9.00;;;;;14.64;47.38;100138.28;2394000;28;44774;-91
2022/04/22 03:20:56;;;;;;;;;8.50;6.50;;;;;14.63;46.95;100139.22;2399237;28;45575;-92
2022/04/22 03:22:07;;;;;;;;;8.50;7.50;;;;;14.62;46.58;100138.38;2403803;28;45256;-91
2022/04/22 03:23:17;;;;;;;;;9.75;9.50;;;;;14.63;46.83;100141.88;2394050;28;48150;-90
2022/04/22 03:24:27;;;;;;;;;10.75;10.00;;;;;14.63;46.73;100136.59;2397014;28;44628;-92
2022/04/22 03:25:40;;;;;;;;;9.25;7.25;;;;;14.61;47.31;100131.41;2394029;28;47014;-92
2022/04/22 03:26:50;;;;;;;;;8.75;8.25;;;;;14.62;47.74;100133.09;2390889;28;45790;-91
2022/04/22 03:28:03;;;;;;;;;7.75;7.75;;;;;14.63;47.59;100133.94;2391893;28;47096;-92
2022/04/22 03:29:13;;;;;;;;;5.00;5.00;;;;;14.63;47.12;100123.34;2398717;28;45285;-91
2022/04/22 03:30:24;;;;;;;;;9.25;7.75;;;;;14.61;46.89;100131.41;2393878;28;46180;-91
2022/04/22 03:31:34;;;;;;;;;10.50;8.50;;;;;14.61;46.80;100126.09;2396134;28;45338;-91
2022/04/22 03:32:44;;;;;;;;;8.25;8.25;;;;;14.59;46.97;100130.63;2393977;28;48467;-93
2022/04/22 03:33:55;;;;;;;;;2.00;2.00;;;;;14.57;46.85;100119.28;2396644;28;44662;-88
2022/04/22 03:35:06;;;;;;;;;8.50;8.00;;;;;14.57;47.11;100123.75;2391452;28;47179;-88
2022/04/22 03:36:16;;;;;;;;;12.00;9.00;;;;;14.59;47.94;100127.97;2386484;28;45302;-90
2022/04/22 03:37:26;;;;;;;;;9.25;9.25;;;;;14.57;47.29;100121.09;2398679;28;45400;-91
2022/04/22 03:38:37;;;;;;;;;10.00;8.75;;;;;14.57;47.26;100121.94;2396776;28;45555;-90
2022/04/22 03:39:47;;;;;;;;;9.00;8.75;;;;;14.56;47.04;100130.81;2396287;28;47879;-91
2022/04/22 03:40:58;;;;;;;;;9.50;8.25;;;;;14.53;47.24;100120.41;2400911;28;45154;-85
2022/04/22 03:42:08;;;;;;;;;9.25;8.00;;;;;14.54;47.01;100121.28;2398578;28;47765;-84
2022/04/22 03:43:23;;;;;;;;;8.25;7.25;;;;;14.57;47.59;100129.03;2403082;28;45271;-84
2022/04/22 03:44:34;;;;;;;;;10.50;9.00;;;;;14.53;47.35;100123.06;2403654;28;46100;-84
2022/04/22 03:45:44;;;;;;;;;8.50;6.75;;;;;14.56;47.27;100127.31;2403339;28;45274;-84
2022/04/22 03:46:55;;;;;;;;;10.00;6.75;;;;;14.52;46.92;100119.56;2398890;28;46828;-84
2022/04/22 03:48:06;;;;;;;;;7.25;7.25;;;;;14.51;47.06;100122.31;2406997;28;47069;-83
2022/04/22 03:49:16;;;;;;;;;14.25;9.75;;;;;14.49;47.02;100126.84;2403748;28;46260;-83
2022/04/22 03:50:28;;;;;;;;;9.50;8.25;;;;;14.49;47.13;100116.25;2403706;28;44701;-84
2022/04/22 03:51:39;;;;;;;;;10.75;8.75;;;;;14.47;47.09;100118.16;2403618;28;46349;-85
2022/04/22 03:52:49;;;;;;;;;6.00;6.00;;;;;14.48;47.11;100119.84;2405505;28;44771;-84
2022/04/22 03:54:00;;;;;;;;;8.50;8.50;;;;;14.48;47.02;100123.34;2403728;28;45353;-82
2022/04/22 03:55:11;;;;;;;;;8.75;8.75;;;;;14.48;47.29;100122.47;2403919;28;45384;-92
2022/04/22 03:59:19;;;;;;;;;7.00;7.00;;;;;14.44;47.05;100123.63;2399903;28;45684;-90
2022/04/22 04:00:30;;;;;;;;;11.75;9.50;;;;;14.45;47.27;100120.00;2403637;28;44763;-88
2022/04/22 04:01:40;;;;;;;;;14.25;8.00;;;;;14.45;47.27;100114.72;2399976;28;45473;-90
2022/04/22 04:02:50;;;;;;;;;9.25;9.25;;;;;14.42;47.65;100113.09;2386544;28;45311;-92
2022/04/22 04:04:01;;;;;;;;;8.25;8.25;;;;;14.45;47.65;100125.28;2385683;28;46906;-91
2022/04/22 04:05:11;;;;;;;;;11.25;10.00;;;;;14.43;46.96;100121.91;2383860;28;45324;-92
2022/04/22 04:06:23;;;;;;;;;10.00;9.00;;;;;14.42;47.56;100112.28;2391364;28;47004;-91
2022/04/22 04:07:33;;;;;;;;;15.75;9.75;;;;;14.43;47.52;100120.13;2393702;28;45171;-93
2022/04/22 04:15:57;;;;;;;;;12.25;10.00;;;;;14.42;47.73;100115.75;2395848;28;46322;-92
2022/04/22 04:16:00;;;;;;;;;9.25;9.25;;;;;14.32;47.29;100122.56;2403352;28;45339;-85
2022/04/22 04:17:14;;;;;;;;;7.50;6.75;;;;;14.28;47.22;100113.94;2402899;28;46411;-86
2022/04/22 04:18:28;;;;;;;;;8.75;7.50;;;;;14.27;47.74;100110.44;2406278;28;45187;-86
2022/04/22 04:24:07;;;;;;;;;11.75;9.25;;;;;14.23;47.56;100106.28;2403874;28;45155;-90
2022/04/22 04:25:18;;;;;;;;;9.00;9.00;;;;;14.23;47.52;100102.78;2403367;28;45263;-89
2022/04/22 04:26:28;;;;;;;;;9.75;9.25;;;;;14.26;47.42;100107.88;2403257;28;45318;-89
2022/04/22 04:27:39;;;;;;;;;9.25;7.75;;;;;14.24;47.36;100108.00;2403330;28;45236;-89
2022/04/22 04:28:50;;;;;;;;;9.50;8.75;;;;;14.23;47.91;100106.28;2393220;28;45290;-89
2022/04/22 04:30:01;;;;;;;;;8.75;8.75;;;;;14.24;48.36;100108.00;2386370;28;48316;-90
2022/04/22 04:31:11;;;;;;;;;9.00;8.50;;;;;14.25;47.84;100103.53;2398444;28;45461;-90
2022/04/22 04:32:22;;;;;;;;;8.25;7.25;;;;;14.25;48.12;100108.81;2401370;28;45464;-91
2022/04/22 04:33:32;;;;;;;;;10.25;9.75;;;;;14.25;48.42;100104.38;2403570;28;45543;-90
2022/04/22 04:34:44;;;;;;;;;10.00;9.25;;;;;14.25;48.01;100114.09;2402962;28;45358;-91
2022/04/22 04:35:55;;;;;;;;;8.75;8.25;;;;;14.25;48.37;100107.03;2393289;28;45218;-90
2022/04/22 04:37:06;;;;;;;;;9.50;7.75;;;;;14.23;48.57;100100.13;2393520;28;47290;-90
2022/04/22 04:38:17;;;;;;;;;9.25;9.00;;;;;14.24;48.46;100110.63;2402019;28;44727;-89
2022/04/22 04:39:27;;;;;;;;;10.50;10.00;;;;;14.23;48.06;100105.41;2412397;28;45418;-90
2022/04/22 04:40:38;;;;;;;;;8.25;8.00;;;;;14.22;48.25;100109.03;2402752;28;45289;-90
2022/04/22 04:41:49;;;;;;;;;9.25;9.00;;;;;14.20;48.16;100106.44;2400511;28;45203;-91
2022/04/22 04:43:01;;;;;;;;;8.50;8.50;;;;;14.21;47.89;100112.59;2400031;28;44616;-93
2022/04/22 04:44:12;;;;;;;;;9.50;8.75;;;;;14.17;48.12;100118.06;2402760;28;47253;-92
2022/04/22 04:45:23;;;;;;;;;13.75;10.25;;;;;14.13;47.77;100105.09;2390700;28;44798;-93
2022/04/22 04:46:33;;;;;;;;;9.00;8.00;;;;;14.12;47.82;100106.94;2381011;28;47234;-92
2022/04/22 04:47:43;;;;;;;;;9.25;9.00;;;;;14.10;48.13;100108.78;2389244;28;45228;-92
2022/04/22 04:48:56;;;;;;;;;8.50;8.50;;;;;14.07;48.07;100099.22;2403081;28;46338;-88
2022/04/22 04:50:07;;;;;;;;;9.00;9.00;;;;;14.07;48.21;100101.88;2411886;28;45269;-87
2022/04/22 04:51:18;;;;;;;;;12.00;9.50;;;;;14.07;48.01;100103.69;2398739;28;47195;-87
2022/04/22 04:52:28;;;;;;;;;11.50;10.50;;;;;14.09;48.59;100106.25;2386348;28;44659;-89
2022/04/22 04:53:38;;;;;;;;;9.75;9.25;;;;;14.08;48.21;100102.72;2395369;28;46980;-89
2022/04/22 04:54:50;;;;;;;;;9.25;8.25;;;;;14.07;48.62;100104.53;2390542;28;46643;-89
2022/04/22 04:56:01;;;;;;;;;11.00;11.00;;;;;14.07;48.46;100109.81;2401460;28;47970;-89
2022/04/22 04:57:11;;;;;;;;;9.50;9.50;;;;;14.06;48.20;100104.63;2412429;28;44758;-89
2022/04/22 04:58:22;;;;;;;;;9.25;9.25;;;;;14.07;48.22;100103.69;2392874;28;48010;-89
2022/04/22 04:59:32;;;;;;;;;8.50;8.50;;;;;14.06;48.12;100102.84;2395546;28;45374;-89
2022/04/22 05:00:45;;;;;;;;;9.25;9.25;;;;;14.05;47.94;100101.13;2403080;28;46184;-89
2022/04/22 05:01:55;;;;;;;;;14.50;11.00;;;;;14.04;48.13;100101.22;2393191;28;44646;-91
2022/04/22 05:03:05;;;;;;;;;9.50;9.00;;;;;14.03;48.04;100092.44;2400823;28;47017;-92
2022/04/22 05:04:16;;;;;;;;;10.25;9.25;;;;;14.02;47.98;100103.97;2402743;28;45205;-91
2022/04/22 05:05:27;;;;;;;;;10.25;8.25;;;;;14.01;48.24;100093.47;2392713;28;48124;-91
2022/04/22 05:06:37;;;;;;;;;11.50;10.00;;;;;14.01;48.46;100096.97;2400009;28;44629;-91
2022/04/22 05:07:51;;;;;;;;;7.50;7.50;;;;;14.02;48.07;100096.03;2391406;28;46242;-91
2022/04/22 05:09:02;;;;;;;;;12.00;11.75;;;;;14.02;48.24;100097.81;2396627;28;45336;-91
2022/04/22 05:10:12;;;;;;;;;10.75;8.25;;;;;14.01;48.37;100096.97;2392219;28;48088;-91
2022/04/22 05:11:22;;;;;;;;;10.25;9.75;;;;;14.00;48.15;100089.13;2386238;28;45343;-89
2022/04/22 05:12:33;;;;;;;;;9.25;7.75;;;;;13.99;48.08;100090.06;2392770;28;47107;-88
2022/04/22 05:13:44;;;;;;;;;12.50;12.50;;;;;13.98;48.00;100094.50;2394872;28;45308;-87
2022/04/22 05:14:56;;;;;;;;;16.25;11.50;;;;;13.98;48.66;100096.28;2405299;28;46082;-87
2022/04/22 05:16:06;;;;;;;;;13.75;9.00;;;;;14.00;48.31;100089.13;2399422;28;44711;-84
2022/04/22 05:17:17;;;;;;;;;9.00;9.00;;;;;13.96;48.36;100096.38;2395404;28;45307;-84
2022/04/22 05:18:27;;;;;;;;;11.25;9.50;;;;;13.98;48.41;100093.63;2403108;28;45266;-84
2022/04/22 05:19:38;;;;;;;;;15.50;11.25;;;;;13.97;48.45;100092.81;2402116;28;47470;-84
2022/04/22 05:20:48;;;;;;;;;10.00;9.25;;;;;13.97;48.32;100091.94;2392400;28;45461;-84
2022/04/22 05:21:58;;;;;;;;;10.25;10.00;;;;;13.95;48.57;100092.88;2395080;28;46263;-84
2022/04/22 05:23:09;;;;;;;;;8.50;8.50;;;;;13.97;48.44;100087.53;2403059;28;45911;-84
2022/04/22 05:24:20;;;;;;;;;13.50;10.50;;;;;13.99;48.41;100092.72;2404004;28;45439;-85
2022/04/22 05:25:31;;;;;;;;;12.25;11.25;;;;;13.99;48.74;100090.06;2412126;28;45468;-84
2022/04/22 05:26:41;;;;;;;;;14.75;11.75;;;;;14.01;48.57;100093.47;2392675;28;47172;-86
2022/04/22 05:27:51;;;;;;;;;9.25;9.25;;;;;13.98;48.76;100091.00;2394959;28;45240;-87
2022/04/22 05:29:02;;;;;;;;;9.00;6.25;;;;;13.98;48.66;100091.84;2402116;28;46295;-86
2022/04/22 05:33:13;;;;;;;;;11.75;9.75;;;;;13.92;48.63;100094.88;2396366;28;45302;-94
2022/04/22 05:34:23;;;;;;;;;10.00;10.00;;;;;13.89;48.82;100090.59;2402886;28;45373;-89
2022/04/22 05:35:34;;;;;;;;;11.75;10.00;;;;;13.90;48.84;100092.28;2403299;28;45264;-94
2022/04/22 05:36:44;;;;;;;;;12.00;11.75;;;;;13.89;48.70;100093.25;2396484;28;45333;-86
2022/04/22 05:37:57;;;;;;;;;9.00;8.25;;;;;13.90;48.83;100094.94;2382414;28;45202;-85
2022/04/22 05:39:09;;;;;;;;;10.25;9.25;;;;;13.90;48.84;100094.09;2389630;28;45234;-85
2022/04/22 05:40:21;;;;;;;;;12.00;10.75;;;;;13.91;48.75;100094.00;2402966;28;45254;-85
2022/04/22 05:41:32;;;;;;;;;11.75;11.25;;;;;13.91;48.91;100090.50;2383953;28;47396;-86
2022/04/22 05:42:43;;;;;;;;;8.25;8.25;;;;;13.94;48.82;100095.63;2395482;28;45451;-87
2022/04/22 05:43:53;;;;;;;;;13.75;12.25;;;;;13.93;48.97;100094.75;2399551;28;45850;-87
2022/04/22 05:45:12;;;;;;;;;11.00;9.50;;;;;13.93;48.87;100092.13;2407355;28;44655;-86
2022/04/22 05:46:22;;;;;;;;;14.50;12.25;;;;;13.92;48.97;100098.34;2397715;28;48180;-86
2022/04/22 05:47:32;;;;;;;;;12.50;10.25;;;;;13.88;49.03;100085.41;2395597;28;44763;-89
2022/04/22 05:48:43;;;;;;;;;10.50;9.50;;;;;13.89;48.70;100093.25;2402870;28;46451;-87
2022/04/22 05:49:53;;;;;;;;;14.50;11.50;;;;;13.89;49.23;100092.38;2402804;28;45298;-90
2022/04/22 05:51:04;;;;;;;;;12.00;12.00;;;;;13.90;49.12;100094.94;2392401;28;47253;-88
2022/04/22 05:52:14;;;;;;;;;11.25;11.25;;;;;13.89;49.23;100089.75;2385535;28;44677;-85
2022/04/22 05:53:25;;;;;;;;;14.75;10.50;;;;;13.90;49.29;100088.81;2395118;28;45434;-83
2022/04/22 05:54:36;;;;;;;;;15.75;13.25;;;;;13.90;49.35;100091.47;2402812;28;44739;-83
2022/04/22 05:55:46;;;;;;;;;12.75;11.00;;;;;13.89;49.23;100093.25;2402750;28;46303;-82
2022/04/22 05:56:57;;;;;;;;;14.75;10.75;;;;;13.92;49.23;100095.72;2402545;28;45182;-82
2022/04/22 05:58:07;;;;;;;;;11.00;10.50;;;;;13.90;49.69;100102.84;2402699;28;45293;-85